<?xml version="1.0" encoding="UTF-8" standalone="no" ?>
<gpx xmlns="http://www.topografix.com/GPX/1/1" xmlns:xsi="http://www.w3.org/2001/XMLSchema-instance" xsi:schemaLocation="http://www.topografix.com/GPX/1/1 http://www.topografix.com/GPX/1/1/gpx.xsd" version="1.1" creator="VisuGPX - https://www.visugpx.com">
  <metadata>
    <name>reyrevigne</name>
    <desc><![CDATA[sentier dans les bois]]></desc>
  </metadata>
  <trk>
    <name><![CDATA[09-MAI-14 16:28:22]]></name>
    <trkseg>
      <trkpt lat="44.63173" lon="1.90793">
        <ele>309.2</ele>
        <time>2014-05-09T12:28:09Z</time>
      </trkpt>
      <trkpt lat="44.63176" lon="1.90796">
        <ele>309.68</ele>
        <time>2014-05-09T12:28:29Z</time>
      </trkpt>
      <trkpt lat="44.6318" lon="1.90795">
        <ele>309.2</ele>
        <time>2014-05-09T12:28:42Z</time>
      </trkpt>
      <trkpt lat="44.63188" lon="1.90781">
        <ele>309.2</ele>
        <time>2014-05-09T12:28:59Z</time>
      </trkpt>
      <trkpt lat="44.63196" lon="1.90767">
        <ele>307.76</ele>
        <time>2014-05-09T12:29:16Z</time>
      </trkpt>
      <trkpt lat="44.63201" lon="1.90754">
        <ele>307.28</ele>
        <time>2014-05-09T12:29:34Z</time>
      </trkpt>
      <trkpt lat="44.63203" lon="1.9073">
        <ele>307.28</ele>
        <time>2014-05-09T12:29:50Z</time>
      </trkpt>
      <trkpt lat="44.63207" lon="1.90713">
        <ele>305.36</ele>
        <time>2014-05-09T12:30:04Z</time>
      </trkpt>
      <trkpt lat="44.63212" lon="1.90686">
        <ele>305.84</ele>
        <time>2014-05-09T12:30:24Z</time>
      </trkpt>
      <trkpt lat="44.63214" lon="1.90668">
        <ele>307.76</ele>
        <time>2014-05-09T12:30:40Z</time>
      </trkpt>
      <trkpt lat="44.63216" lon="1.90652">
        <ele>309.2</ele>
        <time>2014-05-09T12:30:54Z</time>
      </trkpt>
      <trkpt lat="44.63218" lon="1.90633">
        <ele>309.68</ele>
        <time>2014-05-09T12:31:10Z</time>
      </trkpt>
      <trkpt lat="44.63218" lon="1.90607">
        <ele>311.6</ele>
        <time>2014-05-09T12:31:28Z</time>
      </trkpt>
      <trkpt lat="44.63222" lon="1.90583">
        <ele>311.6</ele>
        <time>2014-05-09T12:31:46Z</time>
      </trkpt>
      <trkpt lat="44.63223" lon="1.90562">
        <ele>311.6</ele>
        <time>2014-05-09T12:32:02Z</time>
      </trkpt>
      <trkpt lat="44.63225" lon="1.90538">
        <ele>312.57</ele>
        <time>2014-05-09T12:32:22Z</time>
      </trkpt>
      <trkpt lat="44.63228" lon="1.9052">
        <ele>311.6</ele>
        <time>2014-05-09T12:32:37Z</time>
      </trkpt>
      <trkpt lat="44.63228" lon="1.905">
        <ele>310.64</ele>
        <time>2014-05-09T12:32:53Z</time>
      </trkpt>
      <trkpt lat="44.63227" lon="1.9048">
        <ele>311.12</ele>
        <time>2014-05-09T12:33:09Z</time>
      </trkpt>
      <trkpt lat="44.63226" lon="1.90456">
        <ele>309.68</ele>
        <time>2014-05-09T12:33:27Z</time>
      </trkpt>
      <trkpt lat="44.63225" lon="1.90433">
        <ele>308.24</ele>
        <time>2014-05-09T12:33:46Z</time>
      </trkpt>
      <trkpt lat="44.63224" lon="1.90419">
        <ele>308.72</ele>
        <time>2014-05-09T12:34:02Z</time>
      </trkpt>
      <trkpt lat="44.63224" lon="1.90409">
        <ele>311.12</ele>
        <time>2014-05-09T12:34:17Z</time>
      </trkpt>
      <trkpt lat="44.63224" lon="1.90398">
        <ele>311.6</ele>
        <time>2014-05-09T12:34:31Z</time>
      </trkpt>
      <trkpt lat="44.63236" lon="1.90403">
        <ele>310.64</ele>
        <time>2014-05-09T12:34:47Z</time>
      </trkpt>
      <trkpt lat="44.63241" lon="1.90391">
        <ele>309.2</ele>
        <time>2014-05-09T12:35:04Z</time>
      </trkpt>
      <trkpt lat="44.63242" lon="1.90388">
        <ele>309.68</ele>
        <time>2014-05-09T12:35:20Z</time>
      </trkpt>
      <trkpt lat="44.63244" lon="1.90373">
        <ele>309.2</ele>
        <time>2014-05-09T12:35:34Z</time>
      </trkpt>
      <trkpt lat="44.6325" lon="1.90363">
        <ele>309.2</ele>
        <time>2014-05-09T12:35:49Z</time>
      </trkpt>
      <trkpt lat="44.63256" lon="1.90373">
        <ele>307.28</ele>
        <time>2014-05-09T12:36:04Z</time>
      </trkpt>
      <trkpt lat="44.63256" lon="1.90387">
        <ele>306.32</ele>
        <time>2014-05-09T12:36:18Z</time>
      </trkpt>
      <trkpt lat="44.63259" lon="1.90398">
        <ele>306.32</ele>
        <time>2014-05-09T12:36:33Z</time>
      </trkpt>
      <trkpt lat="44.63262" lon="1.90407">
        <ele>306.32</ele>
        <time>2014-05-09T12:36:47Z</time>
      </trkpt>
      <trkpt lat="44.63265" lon="1.90419">
        <ele>305.36</ele>
        <time>2014-05-09T12:37:04Z</time>
      </trkpt>
      <trkpt lat="44.6327" lon="1.90421">
        <ele>304.88</ele>
        <time>2014-05-09T12:37:21Z</time>
      </trkpt>
      <trkpt lat="44.63271" lon="1.90421">
        <ele>304.88</ele>
        <time>2014-05-09T12:37:36Z</time>
      </trkpt>
      <trkpt lat="44.63277" lon="1.90424">
        <ele>304.39</ele>
        <time>2014-05-09T12:37:51Z</time>
      </trkpt>
      <trkpt lat="44.63282" lon="1.90425">
        <ele>303.43</ele>
        <time>2014-05-09T12:38:06Z</time>
      </trkpt>
      <trkpt lat="44.6329" lon="1.90427">
        <ele>301.99</ele>
        <time>2014-05-09T12:38:21Z</time>
      </trkpt>
      <trkpt lat="44.63296" lon="1.90431">
        <ele>302.47</ele>
        <time>2014-05-09T12:38:38Z</time>
      </trkpt>
      <trkpt lat="44.63303" lon="1.90433">
        <ele>301.99</ele>
        <time>2014-05-09T12:38:54Z</time>
      </trkpt>
      <trkpt lat="44.63306" lon="1.90432">
        <ele>300.55</ele>
        <time>2014-05-09T12:39:07Z</time>
      </trkpt>
      <trkpt lat="44.63308" lon="1.90431">
        <ele>300.55</ele>
        <time>2014-05-09T12:39:19Z</time>
      </trkpt>
      <trkpt lat="44.63311" lon="1.90431">
        <ele>300.07</ele>
        <time>2014-05-09T12:39:35Z</time>
      </trkpt>
      <trkpt lat="44.63314" lon="1.90434">
        <ele>299.59</ele>
        <time>2014-05-09T12:39:50Z</time>
      </trkpt>
      <trkpt lat="44.6332" lon="1.90432">
        <ele>298.63</ele>
        <time>2014-05-09T12:40:06Z</time>
      </trkpt>
      <trkpt lat="44.63319" lon="1.90432">
        <ele>299.59</ele>
        <time>2014-05-09T12:40:29Z</time>
      </trkpt>
      <trkpt lat="44.63323" lon="1.90426">
        <ele>299.11</ele>
        <time>2014-05-09T12:40:46Z</time>
      </trkpt>
      <trkpt lat="44.63329" lon="1.90417">
        <ele>298.15</ele>
        <time>2014-05-09T12:41:00Z</time>
      </trkpt>
      <trkpt lat="44.63333" lon="1.90412">
        <ele>298.15</ele>
        <time>2014-05-09T12:41:13Z</time>
      </trkpt>
      <trkpt lat="44.63339" lon="1.90409">
        <ele>296.7</ele>
        <time>2014-05-09T12:41:23Z</time>
      </trkpt>
      <trkpt lat="44.63345" lon="1.90407">
        <ele>296.7</ele>
        <time>2014-05-09T12:41:34Z</time>
      </trkpt>
      <trkpt lat="44.6335" lon="1.90405">
        <ele>296.22</ele>
        <time>2014-05-09T12:41:44Z</time>
      </trkpt>
      <trkpt lat="44.63357" lon="1.90405">
        <ele>296.22</ele>
        <time>2014-05-09T12:41:57Z</time>
      </trkpt>
      <trkpt lat="44.63366" lon="1.90401">
        <ele>295.26</ele>
        <time>2014-05-09T12:42:10Z</time>
      </trkpt>
      <trkpt lat="44.63374" lon="1.90394">
        <ele>295.74</ele>
        <time>2014-05-09T12:42:24Z</time>
      </trkpt>
      <trkpt lat="44.63381" lon="1.90385">
        <ele>295.26</ele>
        <time>2014-05-09T12:42:38Z</time>
      </trkpt>
      <trkpt lat="44.63385" lon="1.9038">
        <ele>294.78</ele>
        <time>2014-05-09T12:43:01Z</time>
      </trkpt>
      <trkpt lat="44.63389" lon="1.90373">
        <ele>294.78</ele>
        <time>2014-05-09T12:43:21Z</time>
      </trkpt>
      <trkpt lat="44.63394" lon="1.90361">
        <ele>297.18</ele>
        <time>2014-05-09T12:43:40Z</time>
      </trkpt>
      <trkpt lat="44.63397" lon="1.90351">
        <ele>299.11</ele>
        <time>2014-05-09T12:44:02Z</time>
      </trkpt>
      <trkpt lat="44.63401" lon="1.9034">
        <ele>304.88</ele>
        <time>2014-05-09T12:44:16Z</time>
      </trkpt>
      <trkpt lat="44.63405" lon="1.90328">
        <ele>306.32</ele>
        <time>2014-05-09T12:44:33Z</time>
      </trkpt>
      <trkpt lat="44.63409" lon="1.90318">
        <ele>305.36</ele>
        <time>2014-05-09T12:44:48Z</time>
      </trkpt>
      <trkpt lat="44.63411" lon="1.90307">
        <ele>304.88</ele>
        <time>2014-05-09T12:45:04Z</time>
      </trkpt>
      <trkpt lat="44.63414" lon="1.90291">
        <ele>306.32</ele>
        <time>2014-05-09T12:45:24Z</time>
      </trkpt>
      <trkpt lat="44.63418" lon="1.90282">
        <ele>307.76</ele>
        <time>2014-05-09T12:45:39Z</time>
      </trkpt>
      <trkpt lat="44.63428" lon="1.90273">
        <ele>308.24</ele>
        <time>2014-05-09T12:46:03Z</time>
      </trkpt>
      <trkpt lat="44.63429" lon="1.90269">
        <ele>310.64</ele>
        <time>2014-05-09T12:46:21Z</time>
      </trkpt>
      <trkpt lat="44.63433" lon="1.9026">
        <ele>316.41</ele>
        <time>2014-05-09T12:46:37Z</time>
      </trkpt>
      <trkpt lat="44.63446" lon="1.90254">
        <ele>315.93</ele>
        <time>2014-05-09T12:46:51Z</time>
      </trkpt>
      <trkpt lat="44.63457" lon="1.90265">
        <ele>313.53</ele>
        <time>2014-05-09T12:47:05Z</time>
      </trkpt>
      <trkpt lat="44.63462" lon="1.90268">
        <ele>314.01</ele>
        <time>2014-05-09T12:47:24Z</time>
      </trkpt>
      <trkpt lat="44.6347" lon="1.90279">
        <ele>313.53</ele>
        <time>2014-05-09T12:47:39Z</time>
      </trkpt>
      <trkpt lat="44.63476" lon="1.90285">
        <ele>315.45</ele>
        <time>2014-05-09T12:47:52Z</time>
      </trkpt>
      <trkpt lat="44.6348" lon="1.90288">
        <ele>316.41</ele>
        <time>2014-05-09T12:48:04Z</time>
      </trkpt>
      <trkpt lat="44.63483" lon="1.90288">
        <ele>317.37</ele>
        <time>2014-05-09T12:48:20Z</time>
      </trkpt>
      <trkpt lat="44.63488" lon="1.90295">
        <ele>316.41</ele>
        <time>2014-05-09T12:48:37Z</time>
      </trkpt>
      <trkpt lat="44.63494" lon="1.903">
        <ele>316.41</ele>
        <time>2014-05-09T12:48:51Z</time>
      </trkpt>
      <trkpt lat="44.63504" lon="1.90307">
        <ele>315.93</ele>
        <time>2014-05-09T12:49:07Z</time>
      </trkpt>
      <trkpt lat="44.63512" lon="1.90318">
        <ele>314.49</ele>
        <time>2014-05-09T12:49:22Z</time>
      </trkpt>
      <trkpt lat="44.63525" lon="1.90324">
        <ele>316.41</ele>
        <time>2014-05-09T12:49:39Z</time>
      </trkpt>
      <trkpt lat="44.63535" lon="1.90317">
        <ele>319.3</ele>
        <time>2014-05-09T12:49:54Z</time>
      </trkpt>
      <trkpt lat="44.63538" lon="1.90305">
        <ele>319.78</ele>
        <time>2014-05-09T12:50:08Z</time>
      </trkpt>
      <trkpt lat="44.63543" lon="1.90301">
        <ele>320.26</ele>
        <time>2014-05-09T12:50:21Z</time>
      </trkpt>
      <trkpt lat="44.63544" lon="1.90301">
        <ele>320.74</ele>
        <time>2014-05-09T12:50:48Z</time>
      </trkpt>
      <trkpt lat="44.63552" lon="1.90302">
        <ele>320.74</ele>
        <time>2014-05-09T12:51:01Z</time>
      </trkpt>
      <trkpt lat="44.63558" lon="1.90301">
        <ele>320.74</ele>
        <time>2014-05-09T12:51:14Z</time>
      </trkpt>
      <trkpt lat="44.63567" lon="1.90289">
        <ele>321.22</ele>
        <time>2014-05-09T12:51:29Z</time>
      </trkpt>
      <trkpt lat="44.63578" lon="1.90281">
        <ele>320.26</ele>
        <time>2014-05-09T12:51:44Z</time>
      </trkpt>
      <trkpt lat="44.63586" lon="1.9028">
        <ele>319.78</ele>
        <time>2014-05-09T12:51:57Z</time>
      </trkpt>
      <trkpt lat="44.63599" lon="1.90284">
        <ele>319.3</ele>
        <time>2014-05-09T12:52:13Z</time>
      </trkpt>
      <trkpt lat="44.63605" lon="1.90288">
        <ele>319.3</ele>
        <time>2014-05-09T12:52:25Z</time>
      </trkpt>
      <trkpt lat="44.63612" lon="1.90291">
        <ele>319.78</ele>
        <time>2014-05-09T12:52:39Z</time>
      </trkpt>
      <trkpt lat="44.63624" lon="1.90295">
        <ele>318.33</ele>
        <time>2014-05-09T12:52:54Z</time>
      </trkpt>
      <trkpt lat="44.63633" lon="1.903">
        <ele>319.3</ele>
        <time>2014-05-09T12:53:07Z</time>
      </trkpt>
      <trkpt lat="44.63646" lon="1.90304">
        <ele>321.22</ele>
        <time>2014-05-09T12:53:22Z</time>
      </trkpt>
      <trkpt lat="44.63656" lon="1.90308">
        <ele>320.26</ele>
        <time>2014-05-09T12:53:33Z</time>
      </trkpt>
      <trkpt lat="44.63659" lon="1.90309">
        <ele>321.22</ele>
        <time>2014-05-09T12:53:51Z</time>
      </trkpt>
      <trkpt lat="44.63659" lon="1.90308">
        <ele>321.7</ele>
        <time>2014-05-09T12:54:20Z</time>
      </trkpt>
      <trkpt lat="44.63659" lon="1.90308">
        <ele>323.14</ele>
        <time>2014-05-09T12:54:42Z</time>
      </trkpt>
      <trkpt lat="44.63667" lon="1.90311">
        <ele>323.62</ele>
        <time>2014-05-09T12:54:57Z</time>
      </trkpt>
      <trkpt lat="44.63668" lon="1.90304">
        <ele>325.06</ele>
        <time>2014-05-09T12:55:11Z</time>
      </trkpt>
      <trkpt lat="44.63666" lon="1.90289">
        <ele>325.06</ele>
        <time>2014-05-09T12:55:27Z</time>
      </trkpt>
      <trkpt lat="44.63665" lon="1.90277">
        <ele>324.58</ele>
        <time>2014-05-09T12:55:43Z</time>
      </trkpt>
      <trkpt lat="44.63663" lon="1.90261">
        <ele>322.66</ele>
        <time>2014-05-09T12:55:59Z</time>
      </trkpt>
      <trkpt lat="44.63661" lon="1.90245">
        <ele>322.18</ele>
        <time>2014-05-09T12:56:16Z</time>
      </trkpt>
      <trkpt lat="44.63659" lon="1.9023">
        <ele>321.7</ele>
        <time>2014-05-09T12:56:32Z</time>
      </trkpt>
      <trkpt lat="44.63656" lon="1.90214">
        <ele>321.7</ele>
        <time>2014-05-09T12:56:48Z</time>
      </trkpt>
      <trkpt lat="44.63655" lon="1.90203">
        <ele>320.74</ele>
        <time>2014-05-09T12:57:04Z</time>
      </trkpt>
      <trkpt lat="44.63653" lon="1.90198">
        <ele>321.7</ele>
        <time>2014-05-09T12:57:23Z</time>
      </trkpt>
      <trkpt lat="44.63649" lon="1.90185">
        <ele>319.78</ele>
        <time>2014-05-09T12:57:39Z</time>
      </trkpt>
      <trkpt lat="44.63646" lon="1.90171">
        <ele>319.3</ele>
        <time>2014-05-09T12:57:55Z</time>
      </trkpt>
      <trkpt lat="44.63638" lon="1.90162">
        <ele>318.81</ele>
        <time>2014-05-09T12:58:10Z</time>
      </trkpt>
      <trkpt lat="44.6363" lon="1.90161">
        <ele>316.89</ele>
        <time>2014-05-09T12:58:24Z</time>
      </trkpt>
      <trkpt lat="44.63624" lon="1.90161">
        <ele>316.89</ele>
        <time>2014-05-09T12:58:38Z</time>
      </trkpt>
      <trkpt lat="44.63611" lon="1.90156">
        <ele>314.01</ele>
        <time>2014-05-09T12:58:54Z</time>
      </trkpt>
      <trkpt lat="44.636" lon="1.9015">
        <ele>312.57</ele>
        <time>2014-05-09T12:59:09Z</time>
      </trkpt>
      <trkpt lat="44.63594" lon="1.90139">
        <ele>312.57</ele>
        <time>2014-05-09T12:59:25Z</time>
      </trkpt>
      <trkpt lat="44.6359" lon="1.90126">
        <ele>312.09</ele>
        <time>2014-05-09T12:59:40Z</time>
      </trkpt>
      <trkpt lat="44.6359" lon="1.90115">
        <ele>312.09</ele>
        <time>2014-05-09T12:59:53Z</time>
      </trkpt>
      <trkpt lat="44.63593" lon="1.90108">
        <ele>313.05</ele>
        <time>2014-05-09T13:00:07Z</time>
      </trkpt>
      <trkpt lat="44.63599" lon="1.901">
        <ele>312.57</ele>
        <time>2014-05-09T13:00:21Z</time>
      </trkpt>
      <trkpt lat="44.63604" lon="1.90087">
        <ele>311.12</ele>
        <time>2014-05-09T13:00:36Z</time>
      </trkpt>
      <trkpt lat="44.63608" lon="1.90076">
        <ele>313.53</ele>
        <time>2014-05-09T13:00:49Z</time>
      </trkpt>
      <trkpt lat="44.63612" lon="1.90063">
        <ele>314.97</ele>
        <time>2014-05-09T13:01:03Z</time>
      </trkpt>
      <trkpt lat="44.63613" lon="1.90049">
        <ele>315.93</ele>
        <time>2014-05-09T13:01:17Z</time>
      </trkpt>
      <trkpt lat="44.63612" lon="1.90034">
        <ele>315.93</ele>
        <time>2014-05-09T13:01:32Z</time>
      </trkpt>
      <trkpt lat="44.63601" lon="1.90028">
        <ele>315.93</ele>
        <time>2014-05-09T13:01:48Z</time>
      </trkpt>
      <trkpt lat="44.63596" lon="1.90025">
        <ele>315.93</ele>
        <time>2014-05-09T13:02:02Z</time>
      </trkpt>
      <trkpt lat="44.63595" lon="1.90023">
        <ele>315.45</ele>
        <time>2014-05-09T13:02:19Z</time>
      </trkpt>
      <trkpt lat="44.63589" lon="1.90013">
        <ele>314.97</ele>
        <time>2014-05-09T13:02:34Z</time>
      </trkpt>
      <trkpt lat="44.63597" lon="1.90001">
        <ele>315.93</ele>
        <time>2014-05-09T13:02:48Z</time>
      </trkpt>
      <trkpt lat="44.63599" lon="1.89999">
        <ele>316.89</ele>
        <time>2014-05-09T13:03:04Z</time>
      </trkpt>
      <trkpt lat="44.63604" lon="1.8999">
        <ele>317.37</ele>
        <time>2014-05-09T13:03:18Z</time>
      </trkpt>
      <trkpt lat="44.63606" lon="1.89984">
        <ele>316.41</ele>
        <time>2014-05-09T13:03:33Z</time>
      </trkpt>
      <trkpt lat="44.63606" lon="1.89975">
        <ele>315.45</ele>
        <time>2014-05-09T13:03:47Z</time>
      </trkpt>
      <trkpt lat="44.63607" lon="1.89968">
        <ele>315.45</ele>
        <time>2014-05-09T13:04:02Z</time>
      </trkpt>
      <trkpt lat="44.63611" lon="1.89952">
        <ele>314.49</ele>
        <time>2014-05-09T13:04:16Z</time>
      </trkpt>
      <trkpt lat="44.63615" lon="1.89939">
        <ele>315.45</ele>
        <time>2014-05-09T13:04:29Z</time>
      </trkpt>
      <trkpt lat="44.63623" lon="1.89932">
        <ele>316.41</ele>
        <time>2014-05-09T13:04:44Z</time>
      </trkpt>
      <trkpt lat="44.63629" lon="1.89919">
        <ele>316.89</ele>
        <time>2014-05-09T13:04:58Z</time>
      </trkpt>
      <trkpt lat="44.63637" lon="1.89905">
        <ele>318.33</ele>
        <time>2014-05-09T13:05:13Z</time>
      </trkpt>
      <trkpt lat="44.63644" lon="1.89891">
        <ele>319.78</ele>
        <time>2014-05-09T13:05:30Z</time>
      </trkpt>
      <trkpt lat="44.63655" lon="1.89892">
        <ele>319.78</ele>
        <time>2014-05-09T13:05:44Z</time>
      </trkpt>
      <trkpt lat="44.63663" lon="1.89897">
        <ele>319.3</ele>
        <time>2014-05-09T13:05:59Z</time>
      </trkpt>
      <trkpt lat="44.63655" lon="1.89892">
        <ele>318.33</ele>
        <time>2014-05-09T13:06:13Z</time>
      </trkpt>
      <trkpt lat="44.63642" lon="1.89892">
        <ele>317.85</ele>
        <time>2014-05-09T13:06:29Z</time>
      </trkpt>
      <trkpt lat="44.6363" lon="1.89886">
        <ele>317.85</ele>
        <time>2014-05-09T13:06:44Z</time>
      </trkpt>
      <trkpt lat="44.63621" lon="1.89877">
        <ele>316.89</ele>
        <time>2014-05-09T13:06:59Z</time>
      </trkpt>
      <trkpt lat="44.6361" lon="1.89874">
        <ele>316.41</ele>
        <time>2014-05-09T13:07:13Z</time>
      </trkpt>
      <trkpt lat="44.63606" lon="1.89859">
        <ele>316.41</ele>
        <time>2014-05-09T13:07:29Z</time>
      </trkpt>
      <trkpt lat="44.63606" lon="1.89847">
        <ele>316.89</ele>
        <time>2014-05-09T13:07:43Z</time>
      </trkpt>
      <trkpt lat="44.63606" lon="1.89841">
        <ele>316.41</ele>
        <time>2014-05-09T13:08:00Z</time>
      </trkpt>
      <trkpt lat="44.63605" lon="1.89837">
        <ele>317.85</ele>
        <time>2014-05-09T13:08:19Z</time>
      </trkpt>
      <trkpt lat="44.63604" lon="1.89836">
        <ele>317.37</ele>
        <time>2014-05-09T13:08:32Z</time>
      </trkpt>
      <trkpt lat="44.63605" lon="1.89837">
        <ele>317.85</ele>
        <time>2014-05-09T13:08:44Z</time>
      </trkpt>
      <trkpt lat="44.63607" lon="1.89838">
        <ele>317.37</ele>
        <time>2014-05-09T13:09:01Z</time>
      </trkpt>
      <trkpt lat="44.63606" lon="1.89839">
        <ele>317.37</ele>
        <time>2014-05-09T13:09:20Z</time>
      </trkpt>
      <trkpt lat="44.63606" lon="1.89839">
        <ele>317.85</ele>
        <time>2014-05-09T13:09:41Z</time>
      </trkpt>
      <trkpt lat="44.63607" lon="1.89839">
        <ele>318.81</ele>
        <time>2014-05-09T13:10:02Z</time>
      </trkpt>
      <trkpt lat="44.63608" lon="1.89838">
        <ele>319.3</ele>
        <time>2014-05-09T13:10:25Z</time>
      </trkpt>
      <trkpt lat="44.63607" lon="1.89838">
        <ele>319.3</ele>
        <time>2014-05-09T13:10:44Z</time>
      </trkpt>
      <trkpt lat="44.63607" lon="1.89838">
        <ele>319.3</ele>
        <time>2014-05-09T13:11:06Z</time>
      </trkpt>
      <trkpt lat="44.63607" lon="1.89837">
        <ele>319.3</ele>
        <time>2014-05-09T13:11:27Z</time>
      </trkpt>
      <trkpt lat="44.63605" lon="1.89837">
        <ele>318.81</ele>
        <time>2014-05-09T13:11:47Z</time>
      </trkpt>
      <trkpt lat="44.63603" lon="1.89837">
        <ele>317.85</ele>
        <time>2014-05-09T13:12:02Z</time>
      </trkpt>
      <trkpt lat="44.63603" lon="1.89837">
        <ele>318.81</ele>
        <time>2014-05-09T13:12:26Z</time>
      </trkpt>
      <trkpt lat="44.63603" lon="1.89837">
        <ele>319.3</ele>
        <time>2014-05-09T13:12:55Z</time>
      </trkpt>
      <trkpt lat="44.63602" lon="1.89837">
        <ele>319.3</ele>
        <time>2014-05-09T13:13:14Z</time>
      </trkpt>
      <trkpt lat="44.63603" lon="1.89835">
        <ele>320.26</ele>
        <time>2014-05-09T13:13:34Z</time>
      </trkpt>
      <trkpt lat="44.63603" lon="1.89835">
        <ele>319.78</ele>
        <time>2014-05-09T13:14:03Z</time>
      </trkpt>
      <trkpt lat="44.63606" lon="1.89831">
        <ele>318.81</ele>
        <time>2014-05-09T13:14:26Z</time>
      </trkpt>
      <trkpt lat="44.63605" lon="1.89832">
        <ele>317.37</ele>
        <time>2014-05-09T13:14:54Z</time>
      </trkpt>
      <trkpt lat="44.63599" lon="1.89832">
        <ele>319.78</ele>
        <time>2014-05-09T13:15:19Z</time>
      </trkpt>
      <trkpt lat="44.63599" lon="1.89833">
        <ele>319.78</ele>
        <time>2014-05-09T13:15:39Z</time>
      </trkpt>
      <trkpt lat="44.636" lon="1.89836">
        <ele>319.78</ele>
        <time>2014-05-09T13:15:58Z</time>
      </trkpt>
      <trkpt lat="44.63601" lon="1.89841">
        <ele>318.81</ele>
        <time>2014-05-09T13:16:14Z</time>
      </trkpt>
      <trkpt lat="44.63602" lon="1.89843">
        <ele>319.3</ele>
        <time>2014-05-09T13:16:33Z</time>
      </trkpt>
      <trkpt lat="44.63605" lon="1.8985">
        <ele>318.33</ele>
        <time>2014-05-09T13:16:46Z</time>
      </trkpt>
      <trkpt lat="44.63605" lon="1.8986">
        <ele>316.89</ele>
        <time>2014-05-09T13:17:02Z</time>
      </trkpt>
      <trkpt lat="44.63602" lon="1.89863">
        <ele>317.37</ele>
        <time>2014-05-09T13:17:18Z</time>
      </trkpt>
      <trkpt lat="44.63592" lon="1.89856">
        <ele>318.81</ele>
        <time>2014-05-09T13:17:35Z</time>
      </trkpt>
      <trkpt lat="44.6358" lon="1.89853">
        <ele>315.93</ele>
        <time>2014-05-09T13:17:52Z</time>
      </trkpt>
      <trkpt lat="44.6357" lon="1.89844">
        <ele>314.49</ele>
        <time>2014-05-09T13:18:09Z</time>
      </trkpt>
      <trkpt lat="44.6356" lon="1.89844">
        <ele>314.01</ele>
        <time>2014-05-09T13:18:24Z</time>
      </trkpt>
      <trkpt lat="44.63551" lon="1.89845">
        <ele>314.97</ele>
        <time>2014-05-09T13:18:40Z</time>
      </trkpt>
      <trkpt lat="44.63549" lon="1.89842">
        <ele>313.53</ele>
        <time>2014-05-09T13:18:55Z</time>
      </trkpt>
      <trkpt lat="44.63545" lon="1.89839">
        <ele>313.05</ele>
        <time>2014-05-09T13:19:10Z</time>
      </trkpt>
      <trkpt lat="44.63536" lon="1.89828">
        <ele>311.12</ele>
        <time>2014-05-09T13:19:27Z</time>
      </trkpt>
      <trkpt lat="44.63531" lon="1.89819">
        <ele>310.16</ele>
        <time>2014-05-09T13:19:43Z</time>
      </trkpt>
      <trkpt lat="44.63529" lon="1.89816">
        <ele>310.16</ele>
        <time>2014-05-09T13:19:59Z</time>
      </trkpt>
      <trkpt lat="44.63527" lon="1.89813">
        <ele>310.64</ele>
        <time>2014-05-09T13:20:15Z</time>
      </trkpt>
      <trkpt lat="44.63529" lon="1.89801">
        <ele>312.09</ele>
        <time>2014-05-09T13:20:30Z</time>
      </trkpt>
      <trkpt lat="44.63527" lon="1.89793">
        <ele>311.12</ele>
        <time>2014-05-09T13:20:45Z</time>
      </trkpt>
      <trkpt lat="44.63526" lon="1.89788">
        <ele>311.6</ele>
        <time>2014-05-09T13:20:57Z</time>
      </trkpt>
      <trkpt lat="44.63522" lon="1.89788">
        <ele>310.64</ele>
        <time>2014-05-09T13:21:12Z</time>
      </trkpt>
      <trkpt lat="44.63514" lon="1.89784">
        <ele>308.72</ele>
        <time>2014-05-09T13:21:29Z</time>
      </trkpt>
      <trkpt lat="44.63514" lon="1.89783">
        <ele>308.24</ele>
        <time>2014-05-09T13:21:47Z</time>
      </trkpt>
      <trkpt lat="44.63513" lon="1.89781">
        <ele>307.76</ele>
        <time>2014-05-09T13:22:13Z</time>
      </trkpt>
      <trkpt lat="44.63513" lon="1.8978">
        <ele>308.72</ele>
        <time>2014-05-09T13:22:31Z</time>
      </trkpt>
      <trkpt lat="44.63513" lon="1.89779">
        <ele>309.68</ele>
        <time>2014-05-09T13:23:02Z</time>
      </trkpt>
      <trkpt lat="44.63513" lon="1.8978">
        <ele>309.68</ele>
        <time>2014-05-09T13:23:22Z</time>
      </trkpt>
      <trkpt lat="44.63513" lon="1.8978">
        <ele>309.68</ele>
        <time>2014-05-09T13:23:43Z</time>
      </trkpt>
      <trkpt lat="44.63513" lon="1.8978">
        <ele>309.2</ele>
        <time>2014-05-09T13:24:16Z</time>
      </trkpt>
      <trkpt lat="44.63512" lon="1.8978">
        <ele>309.68</ele>
        <time>2014-05-09T13:24:38Z</time>
      </trkpt>
      <trkpt lat="44.63512" lon="1.8978">
        <ele>310.16</ele>
        <time>2014-05-09T13:24:56Z</time>
      </trkpt>
      <trkpt lat="44.63512" lon="1.89781">
        <ele>310.16</ele>
        <time>2014-05-09T13:25:25Z</time>
      </trkpt>
      <trkpt lat="44.63512" lon="1.8978">
        <ele>309.68</ele>
        <time>2014-05-09T13:25:52Z</time>
      </trkpt>
      <trkpt lat="44.63512" lon="1.8978">
        <ele>309.68</ele>
        <time>2014-05-09T13:26:18Z</time>
      </trkpt>
      <trkpt lat="44.63514" lon="1.89784">
        <ele>309.2</ele>
        <time>2014-05-09T13:26:37Z</time>
      </trkpt>
      <trkpt lat="44.63519" lon="1.89791">
        <ele>310.16</ele>
        <time>2014-05-09T13:26:50Z</time>
      </trkpt>
      <trkpt lat="44.63528" lon="1.89796">
        <ele>309.2</ele>
        <time>2014-05-09T13:27:03Z</time>
      </trkpt>
      <trkpt lat="44.63539" lon="1.89806">
        <ele>310.64</ele>
        <time>2014-05-09T13:27:17Z</time>
      </trkpt>
      <trkpt lat="44.63538" lon="1.8982">
        <ele>309.68</ele>
        <time>2014-05-09T13:27:33Z</time>
      </trkpt>
      <trkpt lat="44.63541" lon="1.89837">
        <ele>310.16</ele>
        <time>2014-05-09T13:27:47Z</time>
      </trkpt>
      <trkpt lat="44.63543" lon="1.89839">
        <ele>311.12</ele>
        <time>2014-05-09T13:28:03Z</time>
      </trkpt>
      <trkpt lat="44.63548" lon="1.89842">
        <ele>312.57</ele>
        <time>2014-05-09T13:28:18Z</time>
      </trkpt>
      <trkpt lat="44.63553" lon="1.89848">
        <ele>313.05</ele>
        <time>2014-05-09T13:28:35Z</time>
      </trkpt>
      <trkpt lat="44.63561" lon="1.89845">
        <ele>314.49</ele>
        <time>2014-05-09T13:28:46Z</time>
      </trkpt>
      <trkpt lat="44.6357" lon="1.89845">
        <ele>314.97</ele>
        <time>2014-05-09T13:29:01Z</time>
      </trkpt>
      <trkpt lat="44.63579" lon="1.89852">
        <ele>316.41</ele>
        <time>2014-05-09T13:29:15Z</time>
      </trkpt>
      <trkpt lat="44.63586" lon="1.89856">
        <ele>316.41</ele>
        <time>2014-05-09T13:29:28Z</time>
      </trkpt>
      <trkpt lat="44.63596" lon="1.89862">
        <ele>315.93</ele>
        <time>2014-05-09T13:29:45Z</time>
      </trkpt>
      <trkpt lat="44.63599" lon="1.89865">
        <ele>316.41</ele>
        <time>2014-05-09T13:30:00Z</time>
      </trkpt>
      <trkpt lat="44.63601" lon="1.89866">
        <ele>317.85</ele>
        <time>2014-05-09T13:30:17Z</time>
      </trkpt>
      <trkpt lat="44.63607" lon="1.89872">
        <ele>318.81</ele>
        <time>2014-05-09T13:30:35Z</time>
      </trkpt>
      <trkpt lat="44.63619" lon="1.89877">
        <ele>318.81</ele>
        <time>2014-05-09T13:30:50Z</time>
      </trkpt>
      <trkpt lat="44.6363" lon="1.89884">
        <ele>318.33</ele>
        <time>2014-05-09T13:31:04Z</time>
      </trkpt>
      <trkpt lat="44.63638" lon="1.89892">
        <ele>318.81</ele>
        <time>2014-05-09T13:31:20Z</time>
      </trkpt>
      <trkpt lat="44.63641" lon="1.89901">
        <ele>319.3</ele>
        <time>2014-05-09T13:31:34Z</time>
      </trkpt>
      <trkpt lat="44.63633" lon="1.89917">
        <ele>317.85</ele>
        <time>2014-05-09T13:31:52Z</time>
      </trkpt>
      <trkpt lat="44.63627" lon="1.89928">
        <ele>320.26</ele>
        <time>2014-05-09T13:32:08Z</time>
      </trkpt>
      <trkpt lat="44.63622" lon="1.89937">
        <ele>317.85</ele>
        <time>2014-05-09T13:32:22Z</time>
      </trkpt>
      <trkpt lat="44.63614" lon="1.89941">
        <ele>320.26</ele>
        <time>2014-05-09T13:32:38Z</time>
      </trkpt>
      <trkpt lat="44.63613" lon="1.89942">
        <ele>320.26</ele>
        <time>2014-05-09T13:32:54Z</time>
      </trkpt>
      <trkpt lat="44.63612" lon="1.89951">
        <ele>318.81</ele>
        <time>2014-05-09T13:33:08Z</time>
      </trkpt>
      <trkpt lat="44.6361" lon="1.89959">
        <ele>317.85</ele>
        <time>2014-05-09T13:33:25Z</time>
      </trkpt>
      <trkpt lat="44.63609" lon="1.89965">
        <ele>316.89</ele>
        <time>2014-05-09T13:33:44Z</time>
      </trkpt>
      <trkpt lat="44.63608" lon="1.89973">
        <ele>315.93</ele>
        <time>2014-05-09T13:33:57Z</time>
      </trkpt>
      <trkpt lat="44.63601" lon="1.89993">
        <ele>314.49</ele>
        <time>2014-05-09T13:34:13Z</time>
      </trkpt>
      <trkpt lat="44.63591" lon="1.90011">
        <ele>315.45</ele>
        <time>2014-05-09T13:34:29Z</time>
      </trkpt>
      <trkpt lat="44.63578" lon="1.90011">
        <ele>315.45</ele>
        <time>2014-05-09T13:34:46Z</time>
      </trkpt>
      <trkpt lat="44.63567" lon="1.90006">
        <ele>314.01</ele>
        <time>2014-05-09T13:35:02Z</time>
      </trkpt>
      <trkpt lat="44.63554" lon="1.90004">
        <ele>312.09</ele>
        <time>2014-05-09T13:35:20Z</time>
      </trkpt>
      <trkpt lat="44.63539" lon="1.90003">
        <ele>311.12</ele>
        <time>2014-05-09T13:35:39Z</time>
      </trkpt>
      <trkpt lat="44.63527" lon="1.90001">
        <ele>310.16</ele>
        <time>2014-05-09T13:35:57Z</time>
      </trkpt>
      <trkpt lat="44.63518" lon="1.90004">
        <ele>309.2</ele>
        <time>2014-05-09T13:36:11Z</time>
      </trkpt>
      <trkpt lat="44.6351" lon="1.90011">
        <ele>306.32</ele>
        <time>2014-05-09T13:36:27Z</time>
      </trkpt>
      <trkpt lat="44.63498" lon="1.90019">
        <ele>303.91</ele>
        <time>2014-05-09T13:36:42Z</time>
      </trkpt>
      <trkpt lat="44.63485" lon="1.9001">
        <ele>305.84</ele>
        <time>2014-05-09T13:36:58Z</time>
      </trkpt>
      <trkpt lat="44.63471" lon="1.9">
        <ele>308.72</ele>
        <time>2014-05-09T13:37:15Z</time>
      </trkpt>
      <trkpt lat="44.63464" lon="1.89992">
        <ele>308.24</ele>
        <time>2014-05-09T13:37:29Z</time>
      </trkpt>
      <trkpt lat="44.63455" lon="1.89986">
        <ele>306.8</ele>
        <time>2014-05-09T13:37:44Z</time>
      </trkpt>
      <trkpt lat="44.63443" lon="1.89973">
        <ele>308.24</ele>
        <time>2014-05-09T13:38:01Z</time>
      </trkpt>
      <trkpt lat="44.63435" lon="1.89966">
        <ele>307.76</ele>
        <time>2014-05-09T13:38:14Z</time>
      </trkpt>
      <trkpt lat="44.63424" lon="1.89951">
        <ele>306.32</ele>
        <time>2014-05-09T13:38:31Z</time>
      </trkpt>
      <trkpt lat="44.63417" lon="1.89939">
        <ele>306.32</ele>
        <time>2014-05-09T13:38:48Z</time>
      </trkpt>
      <trkpt lat="44.63407" lon="1.89928">
        <ele>307.28</ele>
        <time>2014-05-09T13:39:05Z</time>
      </trkpt>
      <trkpt lat="44.63399" lon="1.89917">
        <ele>307.28</ele>
        <time>2014-05-09T13:39:20Z</time>
      </trkpt>
      <trkpt lat="44.63391" lon="1.89903">
        <ele>303.91</ele>
        <time>2014-05-09T13:39:36Z</time>
      </trkpt>
      <trkpt lat="44.63383" lon="1.89887">
        <ele>302.47</ele>
        <time>2014-05-09T13:39:53Z</time>
      </trkpt>
      <trkpt lat="44.63377" lon="1.89876">
        <ele>303.91</ele>
        <time>2014-05-09T13:40:05Z</time>
      </trkpt>
      <trkpt lat="44.63369" lon="1.89865">
        <ele>305.36</ele>
        <time>2014-05-09T13:40:20Z</time>
      </trkpt>
      <trkpt lat="44.63363" lon="1.89852">
        <ele>305.84</ele>
        <time>2014-05-09T13:40:35Z</time>
      </trkpt>
      <trkpt lat="44.63358" lon="1.89841">
        <ele>306.32</ele>
        <time>2014-05-09T13:40:51Z</time>
      </trkpt>
      <trkpt lat="44.6335" lon="1.89827">
        <ele>304.88</ele>
        <time>2014-05-09T13:41:07Z</time>
      </trkpt>
      <trkpt lat="44.63345" lon="1.89816">
        <ele>305.84</ele>
        <time>2014-05-09T13:41:21Z</time>
      </trkpt>
      <trkpt lat="44.63341" lon="1.89802">
        <ele>306.32</ele>
        <time>2014-05-09T13:41:38Z</time>
      </trkpt>
      <trkpt lat="44.63341" lon="1.89797">
        <ele>306.8</ele>
        <time>2014-05-09T13:41:54Z</time>
      </trkpt>
      <trkpt lat="44.6334" lon="1.89785">
        <ele>305.84</ele>
        <time>2014-05-09T13:42:10Z</time>
      </trkpt>
      <trkpt lat="44.63338" lon="1.89774">
        <ele>305.84</ele>
        <time>2014-05-09T13:42:23Z</time>
      </trkpt>
      <trkpt lat="44.63338" lon="1.89771">
        <ele>306.32</ele>
        <time>2014-05-09T13:42:42Z</time>
      </trkpt>
      <trkpt lat="44.63336" lon="1.89766">
        <ele>306.8</ele>
        <time>2014-05-09T13:42:56Z</time>
      </trkpt>
      <trkpt lat="44.63335" lon="1.89763">
        <ele>307.28</ele>
        <time>2014-05-09T13:43:28Z</time>
      </trkpt>
      <trkpt lat="44.63321" lon="1.89757">
        <ele>306.32</ele>
        <time>2014-05-09T13:43:45Z</time>
      </trkpt>
      <trkpt lat="44.63319" lon="1.89752">
        <ele>306.8</ele>
        <time>2014-05-09T13:44:07Z</time>
      </trkpt>
      <trkpt lat="44.63308" lon="1.89758">
        <ele>304.39</ele>
        <time>2014-05-09T13:44:22Z</time>
      </trkpt>
      <trkpt lat="44.63297" lon="1.89766">
        <ele>304.88</ele>
        <time>2014-05-09T13:44:37Z</time>
      </trkpt>
      <trkpt lat="44.63291" lon="1.89772">
        <ele>303.91</ele>
        <time>2014-05-09T13:44:51Z</time>
      </trkpt>
      <trkpt lat="44.63279" lon="1.89777">
        <ele>301.51</ele>
        <time>2014-05-09T13:45:08Z</time>
      </trkpt>
      <trkpt lat="44.63267" lon="1.89787">
        <ele>299.11</ele>
        <time>2014-05-09T13:45:26Z</time>
      </trkpt>
      <trkpt lat="44.63257" lon="1.89791">
        <ele>301.03</ele>
        <time>2014-05-09T13:45:41Z</time>
      </trkpt>
      <trkpt lat="44.63252" lon="1.89793">
        <ele>303.43</ele>
        <time>2014-05-09T13:45:58Z</time>
      </trkpt>
      <trkpt lat="44.63244" lon="1.89798">
        <ele>304.39</ele>
        <time>2014-05-09T13:46:15Z</time>
      </trkpt>
      <trkpt lat="44.63234" lon="1.898">
        <ele>303.91</ele>
        <time>2014-05-09T13:46:30Z</time>
      </trkpt>
      <trkpt lat="44.63227" lon="1.89805">
        <ele>301.99</ele>
        <time>2014-05-09T13:46:50Z</time>
      </trkpt>
      <trkpt lat="44.63212" lon="1.89812">
        <ele>300.07</ele>
        <time>2014-05-09T13:47:15Z</time>
      </trkpt>
      <trkpt lat="44.632" lon="1.89837">
        <ele>300.07</ele>
        <time>2014-05-09T13:47:41Z</time>
      </trkpt>
      <trkpt lat="44.63194" lon="1.89864">
        <ele>301.03</ele>
        <time>2014-05-09T13:48:07Z</time>
      </trkpt>
      <trkpt lat="44.63193" lon="1.89877">
        <ele>300.55</ele>
        <time>2014-05-09T13:48:34Z</time>
      </trkpt>
      <trkpt lat="44.6319" lon="1.89891">
        <ele>299.59</ele>
        <time>2014-05-09T13:49:00Z</time>
      </trkpt>
      <trkpt lat="44.63187" lon="1.89905">
        <ele>299.11</ele>
        <time>2014-05-09T13:49:28Z</time>
      </trkpt>
      <trkpt lat="44.63175" lon="1.89947">
        <ele>297.67</ele>
        <time>2014-05-09T13:49:52Z</time>
      </trkpt>
      <trkpt lat="44.63165" lon="1.89978">
        <ele>298.63</ele>
        <time>2014-05-09T13:50:17Z</time>
      </trkpt>
      <trkpt lat="44.63153" lon="1.90038">
        <ele>310.64</ele>
        <time>2014-05-09T13:50:33Z</time>
      </trkpt>
      <trkpt lat="44.63152" lon="1.90055">
        <ele>309.68</ele>
        <time>2014-05-09T13:50:49Z</time>
      </trkpt>
      <trkpt lat="44.63151" lon="1.90065">
        <ele>309.2</ele>
        <time>2014-05-09T13:51:06Z</time>
      </trkpt>
      <trkpt lat="44.63151" lon="1.9007">
        <ele>310.64</ele>
        <time>2014-05-09T13:51:26Z</time>
      </trkpt>
      <trkpt lat="44.6315" lon="1.90077">
        <ele>310.64</ele>
        <time>2014-05-09T13:51:41Z</time>
      </trkpt>
      <trkpt lat="44.63149" lon="1.90101">
        <ele>308.24</ele>
        <time>2014-05-09T13:52:00Z</time>
      </trkpt>
      <trkpt lat="44.63145" lon="1.90121">
        <ele>307.28</ele>
        <time>2014-05-09T13:52:14Z</time>
      </trkpt>
      <trkpt lat="44.63136" lon="1.90139">
        <ele>305.36</ele>
        <time>2014-05-09T13:52:29Z</time>
      </trkpt>
      <trkpt lat="44.63128" lon="1.90158">
        <ele>303.91</ele>
        <time>2014-05-09T13:52:45Z</time>
      </trkpt>
      <trkpt lat="44.63124" lon="1.90169">
        <ele>305.36</ele>
        <time>2014-05-09T13:53:01Z</time>
      </trkpt>
      <trkpt lat="44.63118" lon="1.90185">
        <ele>306.8</ele>
        <time>2014-05-09T13:53:18Z</time>
      </trkpt>
      <trkpt lat="44.6311" lon="1.90203">
        <ele>304.39</ele>
        <time>2014-05-09T13:53:34Z</time>
      </trkpt>
      <trkpt lat="44.63102" lon="1.90224">
        <ele>301.99</ele>
        <time>2014-05-09T13:53:51Z</time>
      </trkpt>
      <trkpt lat="44.63097" lon="1.90242">
        <ele>303.43</ele>
        <time>2014-05-09T13:54:07Z</time>
      </trkpt>
      <trkpt lat="44.63094" lon="1.90265">
        <ele>304.88</ele>
        <time>2014-05-09T13:54:24Z</time>
      </trkpt>
      <trkpt lat="44.63091" lon="1.90283">
        <ele>304.39</ele>
        <time>2014-05-09T13:54:40Z</time>
      </trkpt>
      <trkpt lat="44.63089" lon="1.90297">
        <ele>303.43</ele>
        <time>2014-05-09T13:54:53Z</time>
      </trkpt>
      <trkpt lat="44.63088" lon="1.90305">
        <ele>305.84</ele>
        <time>2014-05-09T13:55:07Z</time>
      </trkpt>
      <trkpt lat="44.63094" lon="1.90328">
        <ele>304.39</ele>
        <time>2014-05-09T13:55:23Z</time>
      </trkpt>
      <trkpt lat="44.63094" lon="1.90354">
        <ele>306.32</ele>
        <time>2014-05-09T13:55:42Z</time>
      </trkpt>
      <trkpt lat="44.6309" lon="1.90375">
        <ele>306.8</ele>
        <time>2014-05-09T13:55:59Z</time>
      </trkpt>
      <trkpt lat="44.63085" lon="1.90392">
        <ele>304.39</ele>
        <time>2014-05-09T13:56:15Z</time>
      </trkpt>
      <trkpt lat="44.63081" lon="1.904">
        <ele>303.91</ele>
        <time>2014-05-09T13:56:30Z</time>
      </trkpt>
      <trkpt lat="44.63075" lon="1.9042">
        <ele>305.36</ele>
        <time>2014-05-09T13:56:44Z</time>
      </trkpt>
      <trkpt lat="44.63068" lon="1.90439">
        <ele>305.36</ele>
        <time>2014-05-09T13:56:57Z</time>
      </trkpt>
      <trkpt lat="44.63063" lon="1.90461">
        <ele>307.76</ele>
        <time>2014-05-09T13:57:13Z</time>
      </trkpt>
      <trkpt lat="44.63056" lon="1.90479">
        <ele>308.24</ele>
        <time>2014-05-09T13:57:30Z</time>
      </trkpt>
      <trkpt lat="44.6305" lon="1.90493">
        <ele>307.28</ele>
        <time>2014-05-09T13:57:47Z</time>
      </trkpt>
      <trkpt lat="44.63045" lon="1.90505">
        <ele>307.76</ele>
        <time>2014-05-09T13:58:01Z</time>
      </trkpt>
      <trkpt lat="44.63038" lon="1.90526">
        <ele>308.72</ele>
        <time>2014-05-09T13:58:17Z</time>
      </trkpt>
      <trkpt lat="44.6303" lon="1.90544">
        <ele>307.76</ele>
        <time>2014-05-09T13:58:34Z</time>
      </trkpt>
      <trkpt lat="44.63025" lon="1.90558">
        <ele>310.16</ele>
        <time>2014-05-09T13:58:49Z</time>
      </trkpt>
      <trkpt lat="44.6302" lon="1.9057">
        <ele>310.64</ele>
        <time>2014-05-09T13:59:04Z</time>
      </trkpt>
      <trkpt lat="44.63016" lon="1.90585">
        <ele>310.64</ele>
        <time>2014-05-09T13:59:22Z</time>
      </trkpt>
      <trkpt lat="44.63009" lon="1.90604">
        <ele>309.68</ele>
        <time>2014-05-09T13:59:39Z</time>
      </trkpt>
      <trkpt lat="44.62999" lon="1.90622">
        <ele>308.72</ele>
        <time>2014-05-09T13:59:56Z</time>
      </trkpt>
      <trkpt lat="44.62995" lon="1.90628">
        <ele>310.16</ele>
        <time>2014-05-09T14:00:12Z</time>
      </trkpt>
      <trkpt lat="44.62984" lon="1.90644">
        <ele>311.6</ele>
        <time>2014-05-09T14:00:26Z</time>
      </trkpt>
      <trkpt lat="44.62975" lon="1.90668">
        <ele>314.49</ele>
        <time>2014-05-09T14:00:42Z</time>
      </trkpt>
      <trkpt lat="44.62968" lon="1.90683">
        <ele>315.93</ele>
        <time>2014-05-09T14:00:55Z</time>
      </trkpt>
      <trkpt lat="44.62967" lon="1.90685">
        <ele>316.89</ele>
        <time>2014-05-09T14:01:17Z</time>
      </trkpt>
      <trkpt lat="44.62965" lon="1.90687">
        <ele>317.37</ele>
        <time>2014-05-09T14:01:34Z</time>
      </trkpt>
      <trkpt lat="44.62965" lon="1.90687">
        <ele>317.37</ele>
        <time>2014-05-09T14:01:56Z</time>
      </trkpt>
      <trkpt lat="44.62965" lon="1.90688">
        <ele>318.33</ele>
        <time>2014-05-09T14:02:25Z</time>
      </trkpt>
      <trkpt lat="44.62965" lon="1.90689">
        <ele>318.81</ele>
        <time>2014-05-09T14:02:48Z</time>
      </trkpt>
      <trkpt lat="44.62965" lon="1.90689">
        <ele>318.81</ele>
        <time>2014-05-09T14:03:11Z</time>
      </trkpt>
      <trkpt lat="44.62964" lon="1.90689">
        <ele>318.81</ele>
        <time>2014-05-09T14:03:30Z</time>
      </trkpt>
      <trkpt lat="44.62964" lon="1.90687">
        <ele>318.33</ele>
        <time>2014-05-09T14:03:52Z</time>
      </trkpt>
      <trkpt lat="44.62963" lon="1.90688">
        <ele>318.33</ele>
        <time>2014-05-09T14:04:14Z</time>
      </trkpt>
      <trkpt lat="44.62964" lon="1.90688">
        <ele>318.81</ele>
        <time>2014-05-09T14:04:38Z</time>
      </trkpt>
      <trkpt lat="44.62963" lon="1.90688">
        <ele>318.81</ele>
        <time>2014-05-09T14:04:50Z</time>
      </trkpt>
      <trkpt lat="44.62962" lon="1.90689">
        <ele>319.3</ele>
        <time>2014-05-09T14:05:08Z</time>
      </trkpt>
      <trkpt lat="44.62962" lon="1.9069">
        <ele>318.33</ele>
        <time>2014-05-09T14:05:22Z</time>
      </trkpt>
      <trkpt lat="44.62961" lon="1.9069">
        <ele>319.3</ele>
        <time>2014-05-09T14:05:40Z</time>
      </trkpt>
      <trkpt lat="44.62959" lon="1.907">
        <ele>318.33</ele>
        <time>2014-05-09T14:05:54Z</time>
      </trkpt>
      <trkpt lat="44.62954" lon="1.90714">
        <ele>317.85</ele>
        <time>2014-05-09T14:06:09Z</time>
      </trkpt>
      <trkpt lat="44.62948" lon="1.90734">
        <ele>314.49</ele>
        <time>2014-05-09T14:06:27Z</time>
      </trkpt>
      <trkpt lat="44.62943" lon="1.90753">
        <ele>314.97</ele>
        <time>2014-05-09T14:06:44Z</time>
      </trkpt>
      <trkpt lat="44.6294" lon="1.90775">
        <ele>314.97</ele>
        <time>2014-05-09T14:07:04Z</time>
      </trkpt>
      <trkpt lat="44.62948" lon="1.90783">
        <ele>314.01</ele>
        <time>2014-05-09T14:07:18Z</time>
      </trkpt>
      <trkpt lat="44.62962" lon="1.90791">
        <ele>311.6</ele>
        <time>2014-05-09T14:07:35Z</time>
      </trkpt>
      <trkpt lat="44.62979" lon="1.90793">
        <ele>312.09</ele>
        <time>2014-05-09T14:07:53Z</time>
      </trkpt>
      <trkpt lat="44.62993" lon="1.90798">
        <ele>312.09</ele>
        <time>2014-05-09T14:08:09Z</time>
      </trkpt>
      <trkpt lat="44.62999" lon="1.90804">
        <ele>313.05</ele>
        <time>2014-05-09T14:08:26Z</time>
      </trkpt>
      <trkpt lat="44.63" lon="1.90805">
        <ele>313.53</ele>
        <time>2014-05-09T14:08:48Z</time>
      </trkpt>
      <trkpt lat="44.62999" lon="1.90805">
        <ele>313.05</ele>
        <time>2014-05-09T14:09:14Z</time>
      </trkpt>
      <trkpt lat="44.63001" lon="1.90806">
        <ele>313.05</ele>
        <time>2014-05-09T14:09:28Z</time>
      </trkpt>
      <trkpt lat="44.63005" lon="1.90808">
        <ele>312.57</ele>
        <time>2014-05-09T14:09:46Z</time>
      </trkpt>
      <trkpt lat="44.63015" lon="1.90819">
        <ele>310.16</ele>
        <time>2014-05-09T14:10:03Z</time>
      </trkpt>
      <trkpt lat="44.63026" lon="1.90823">
        <ele>308.72</ele>
        <time>2014-05-09T14:10:18Z</time>
      </trkpt>
      <trkpt lat="44.63037" lon="1.90829">
        <ele>309.2</ele>
        <time>2014-05-09T14:10:32Z</time>
      </trkpt>
      <trkpt lat="44.63046" lon="1.90835">
        <ele>309.68</ele>
        <time>2014-05-09T14:10:43Z</time>
      </trkpt>
      <trkpt lat="44.63058" lon="1.90841">
        <ele>306.8</ele>
        <time>2014-05-09T14:10:58Z</time>
      </trkpt>
      <trkpt lat="44.63066" lon="1.90847">
        <ele>305.84</ele>
        <time>2014-05-09T14:11:09Z</time>
      </trkpt>
      <trkpt lat="44.63078" lon="1.90859">
        <ele>306.32</ele>
        <time>2014-05-09T14:11:24Z</time>
      </trkpt>
      <trkpt lat="44.63089" lon="1.90868">
        <ele>306.32</ele>
        <time>2014-05-09T14:11:37Z</time>
      </trkpt>
      <trkpt lat="44.63105" lon="1.9088">
        <ele>308.24</ele>
        <time>2014-05-09T14:11:55Z</time>
      </trkpt>
      <trkpt lat="44.63118" lon="1.9089">
        <ele>307.76</ele>
        <time>2014-05-09T14:12:11Z</time>
      </trkpt>
      <trkpt lat="44.63133" lon="1.90896">
        <ele>307.28</ele>
        <time>2014-05-09T14:12:28Z</time>
      </trkpt>
      <trkpt lat="44.63147" lon="1.90898">
        <ele>308.24</ele>
        <time>2014-05-09T14:12:43Z</time>
      </trkpt>
      <trkpt lat="44.63166" lon="1.90898">
        <ele>309.68</ele>
        <time>2014-05-09T14:13:03Z</time>
      </trkpt>
      <trkpt lat="44.6318" lon="1.90897">
        <ele>309.2</ele>
        <time>2014-05-09T14:13:20Z</time>
      </trkpt>
      <trkpt lat="44.63197" lon="1.90894">
        <ele>310.64</ele>
        <time>2014-05-09T14:13:38Z</time>
      </trkpt>
      <trkpt lat="44.63205" lon="1.90888">
        <ele>311.12</ele>
        <time>2014-05-09T14:13:53Z</time>
      </trkpt>
      <trkpt lat="44.63206" lon="1.90886">
        <ele>311.12</ele>
        <time>2014-05-09T14:14:08Z</time>
      </trkpt>
      <trkpt lat="44.63206" lon="1.90884">
        <ele>311.12</ele>
        <time>2014-05-09T14:14:27Z</time>
      </trkpt>
      <trkpt lat="44.63206" lon="1.90884">
        <ele>311.12</ele>
        <time>2014-05-09T14:14:28Z</time>
      </trkpt>
      <trkpt lat="44.63209" lon="1.90887">
        <ele>307.76</ele>
        <time>2014-05-09T14:14:48Z</time>
      </trkpt>
      <trkpt lat="44.63207" lon="1.90887">
        <ele>310.16</ele>
        <time>2014-05-09T14:15:09Z</time>
      </trkpt>
      <trkpt lat="44.63205" lon="1.90884">
        <ele>310.64</ele>
        <time>2014-05-09T14:15:37Z</time>
      </trkpt>
      <trkpt lat="44.63205" lon="1.90872">
        <ele>310.64</ele>
        <time>2014-05-09T14:15:55Z</time>
      </trkpt>
      <trkpt lat="44.632" lon="1.90859">
        <ele>311.6</ele>
        <time>2014-05-09T14:16:13Z</time>
      </trkpt>
      <trkpt lat="44.63194" lon="1.90846">
        <ele>311.12</ele>
        <time>2014-05-09T14:16:28Z</time>
      </trkpt>
      <trkpt lat="44.63188" lon="1.90831">
        <ele>309.68</ele>
        <time>2014-05-09T14:16:45Z</time>
      </trkpt>
      <trkpt lat="44.6318" lon="1.90816">
        <ele>310.16</ele>
        <time>2014-05-09T14:17:02Z</time>
      </trkpt>
      <trkpt lat="44.63176" lon="1.90801">
        <ele>308.24</ele>
        <time>2014-05-09T14:17:19Z</time>
      </trkpt>
      <trkpt lat="44.63176" lon="1.90797">
        <ele>308.24</ele>
        <time>2014-05-09T14:17:36Z</time>
      </trkpt>
      <trkpt lat="44.63175" lon="1.90798">
        <ele>307.76</ele>
        <time>2014-05-09T14:17:44Z</time>
      </trkpt>
      <trkpt lat="44.63169" lon="1.90798">
        <ele>307.76</ele>
        <time>2014-05-09T14:17:59Z</time>
      </trkpt>
      <trkpt lat="44.63173" lon="1.90799">
        <ele>306.8</ele>
        <time>2014-05-09T14:18:15Z</time>
      </trkpt>
      <trkpt lat="44.63176" lon="1.90798">
        <ele>308.24</ele>
        <time>2014-05-09T14:18:29Z</time>
      </trkpt>
      <trkpt lat="44.63176" lon="1.90799">
        <ele>308.72</ele>
        <time>2014-05-09T14:18:52Z</time>
      </trkpt>
      <trkpt lat="44.63176" lon="1.90799">
        <ele>309.68</ele>
        <time>2014-05-09T14:19:13Z</time>
      </trkpt>
      <trkpt lat="44.63174" lon="1.90801">
        <ele>308.72</ele>
        <time>2014-05-09T14:19:32Z</time>
      </trkpt>
      <trkpt lat="44.63174" lon="1.90802">
        <ele>309.2</ele>
        <time>2014-05-09T14:19:52Z</time>
      </trkpt>
      <trkpt lat="44.63174" lon="1.90802">
        <ele>309.2</ele>
        <time>2014-05-09T14:20:09Z</time>
      </trkpt>
      <trkpt lat="44.63174" lon="1.90801">
        <ele>308.72</ele>
        <time>2014-05-09T14:20:31Z</time>
      </trkpt>
      <trkpt lat="44.63175" lon="1.90801">
        <ele>308.24</ele>
        <time>2014-05-09T14:20:48Z</time>
      </trkpt>
      <trkpt lat="44.63176" lon="1.90804">
        <ele>306.8</ele>
        <time>2014-05-09T14:21:00Z</time>
      </trkpt>
      <trkpt lat="44.63176" lon="1.90801">
        <ele>306.8</ele>
        <time>2014-05-09T14:21:18Z</time>
      </trkpt>
      <trkpt lat="44.63176" lon="1.90802">
        <ele>305.84</ele>
        <time>2014-05-09T14:21:34Z</time>
      </trkpt>
      <trkpt lat="44.63177" lon="1.90801">
        <ele>306.8</ele>
        <time>2014-05-09T14:21:50Z</time>
      </trkpt>
      <trkpt lat="44.63178" lon="1.90801">
        <ele>307.76</ele>
        <time>2014-05-09T14:22:14Z</time>
      </trkpt>
      <trkpt lat="44.63177" lon="1.90801">
        <ele>308.24</ele>
        <time>2014-05-09T14:22:43Z</time>
      </trkpt>
      <trkpt lat="44.63177" lon="1.90801">
        <ele>308.72</ele>
        <time>2014-05-09T14:23:02Z</time>
      </trkpt>
      <trkpt lat="44.63176" lon="1.90801">
        <ele>310.16</ele>
        <time>2014-05-09T14:23:19Z</time>
      </trkpt>
      <trkpt lat="44.63176" lon="1.90802">
        <ele>310.16</ele>
        <time>2014-05-09T14:23:41Z</time>
      </trkpt>
      <trkpt lat="44.63176" lon="1.90802">
        <ele>309.68</ele>
        <time>2014-05-09T14:24:00Z</time>
      </trkpt>
      <trkpt lat="44.63175" lon="1.90801">
        <ele>309.2</ele>
        <time>2014-05-09T14:24:28Z</time>
      </trkpt>
      <trkpt lat="44.63174" lon="1.90801">
        <ele>310.16</ele>
        <time>2014-05-09T14:24:57Z</time>
      </trkpt>
      <trkpt lat="44.63175" lon="1.90799">
        <ele>309.68</ele>
        <time>2014-05-09T14:25:10Z</time>
      </trkpt>
      <trkpt lat="44.63174" lon="1.90799">
        <ele>310.16</ele>
        <time>2014-05-09T14:25:32Z</time>
      </trkpt>
      <trkpt lat="44.63174" lon="1.90799">
        <ele>310.16</ele>
        <time>2014-05-09T14:25:51Z</time>
      </trkpt>
      <trkpt lat="44.63174" lon="1.908">
        <ele>310.16</ele>
        <time>2014-05-09T14:26:13Z</time>
      </trkpt>
      <trkpt lat="44.63174" lon="1.90801">
        <ele>310.16</ele>
        <time>2014-05-09T14:26:39Z</time>
      </trkpt>
      <trkpt lat="44.63173" lon="1.90801">
        <ele>311.12</ele>
        <time>2014-05-09T14:27:07Z</time>
      </trkpt>
      <trkpt lat="44.63174" lon="1.90801">
        <ele>312.09</ele>
        <time>2014-05-09T14:27:36Z</time>
      </trkpt>
      <trkpt lat="44.63174" lon="1.90801">
        <ele>312.09</ele>
        <time>2014-05-09T14:28:00Z</time>
      </trkpt>
      <trkpt lat="44.63175" lon="1.90802">
        <ele>313.05</ele>
        <time>2014-05-09T14:28:28Z</time>
      </trkpt>
    </trkseg>
  </trk>
</gpx>